Time,TemperatureF,DewpointF,PressureIn,WindDirection,WindDirectionDegrees,WindSpeedMPH,WindSpeedGustMPH,Humidity,HourlyPrecipIn,Conditions,Clouds,dailyrainin,SoftwareType,DateUTC
2013-02-21 00:01:00,44.6,35.8,29.41,ESE,107,0.0,0.0,71,0.00,,---,0.00,VWS V14.00,2013-02-21 08:01:00,
2013-02-21 00:06:00,44.2,35.5,29.38,East,84,0.0,0.0,71,0.00,,---,0.00,VWS V14.00,2013-02-21 08:06:00,
2013-02-21 00:11:00,43.9,35.1,29.38,East,100,0.0,0.0,71,0.00,,---,0.00,VWS V14.00,2013-02-21 08:11:00,
2013-02-21 00:16:00,43.9,35.1,29.38,East,100,0.0,0.0,71,0.00,,---,0.00,VWS V14.00,2013-02-21 08:16:00,
2013-02-21 00:21:00,44.1,35.6,29.41,East,100,0.0,0.0,72,0.00,,---,0.00,VWS V14.00,2013-02-21 08:21:00,
2013-02-21 00:26:00,44.2,35.8,29.41,East,100,0.0,0.0,72,0.00,,---,0.00,VWS V14.00,2013-02-21 08:26:00,
2013-02-21 00:31:00,44.2,35.8,29.41,East,100,0.0,0.0,72,0.00,,---,0.00,VWS V14.00,2013-02-21 08:31:00,
2013-02-21 00:36:00,44.4,36.0,29.41,East,100,0.0,0.0,72,0.00,,---,0.00,VWS V14.00,2013-02-21 08:36:00,
2013-02-21 00:41:00,44.4,36.0,29.41,East,100,0.0,0.0,72,0.00,,---,0.00,VWS V14.00,2013-02-21 08:41:00,
2013-02-21 00:46:00,44.4,36.0,29.41,East,100,0.0,0.0,72,0.00,,---,0.00,VWS V14.00,2013-02-21 08:46:00,
2013-02-21 00:52:00,44.6,36.2,29.41,East,100,0.0,0.0,72,0.00,,---,0.00,VWS V14.00,2013-02-21 08:52:00,
2013-02-21 00:57:00,44.6,36.2,29.41,East,100,0.0,0.0,72,0.00,,---,0.00,VWS V14.00,2013-02-21 08:57:00,
2013-02-21 01:02:00,44.6,36.2,29.41,East,100,0.0,0.0,72,0.00,,---,0.00,VWS V14.00,2013-02-21 09:02:00,
2013-02-21 01:07:00,44.8,36.3,29.41,East,100,0.0,0.0,72,0.00,,---,0.00,VWS V14.00,2013-02-21 09:07:00,
2013-02-21 01:12:00,44.8,36.3,29.41,East,100,0.0,0.0,72,0.00,,---,0.00,VWS V14.00,2013-02-21 09:12:00,
2013-02-21 01:17:00,44.8,36.3,29.41,East,100,0.0,0.0,72,0.00,,---,0.00,VWS V14.00,2013-02-21 09:17:00,
2013-02-21 01:22:00,44.8,36.3,29.41,East,100,0.0,0.0,72,0.00,,---,0.00,VWS V14.00,2013-02-21 09:22:00,
2013-02-21 01:27:00,44.8,36.3,29.41,East,100,0.0,0.0,72,0.00,,---,0.00,VWS V14.00,2013-02-21 09:27:00,
2013-02-21 01:32:00,44.6,35.8,29.41,East,100,0.0,0.0,71,0.00,,---,0.00,VWS V14.00,2013-02-21 09:32:00,
2013-02-21 01:37:00,44.4,36.0,29.41,East,100,0.0,0.0,72,0.00,,---,0.00,VWS V14.00,2013-02-21 09:37:00,
2013-02-21 01:42:00,44.4,36.0,29.41,East,100,0.0,0.0,72,0.00,,---,0.00,VWS V14.00,2013-02-21 09:42:00,
2013-02-21 01:47:00,44.4,36.0,29.41,East,100,0.0,0.0,72,0.00,,---,0.00,VWS V14.00,2013-02-21 09:47:00,
2013-02-21 01:52:00,44.4,36.0,29.44,East,100,0.0,0.0,72,0.00,,---,0.00,VWS V14.00,2013-02-21 09:52:00,
2013-02-21 01:57:00,44.4,36.0,29.44,East,100,0.0,0.0,72,0.00,,---,0.00,VWS V14.00,2013-02-21 09:57:00,
2013-02-21 02:02:00,44.6,36.2,29.44,East,100,0.0,0.0,72,0.00,,---,0.00,VWS V14.00,2013-02-21 10:02:00,
2013-02-21 02:07:00,44.1,35.6,29.41,East,100,0.0,0.0,72,0.00,,---,0.00,VWS V14.00,2013-02-21 10:07:00,
2013-02-21 02:12:00,43.7,35.3,29.41,East,100,0.0,0.0,72,0.00,,---,0.00,VWS V14.00,2013-02-21 10:12:00,
2013-02-21 02:17:00,43.7,35.6,29.41,East,100,0.0,0.0,73,0.00,,---,0.00,VWS V14.00,2013-02-21 10:17:00,
2013-02-21 02:22:00,43.5,35.5,29.41,East,100,0.0,0.0,73,0.00,,---,0.00,VWS V14.00,2013-02-21 10:22:00,
2013-02-21 02:27:00,43.7,35.6,29.41,East,100,0.0,0.0,73,0.00,,---,0.00,VWS V14.00,2013-02-21 10:27:00,
2013-02-21 02:32:00,43.7,36.0,29.41,East,100,0.0,0.0,74,0.00,,---,0.00,VWS V14.00,2013-02-21 10:32:00,
2013-02-21 02:37:00,43.7,36.0,29.41,East,100,0.0,0.0,74,0.00,,---,0.00,VWS V14.00,2013-02-21 10:37:00,
2013-02-21 02:42:00,43.9,36.1,29.41,East,100,0.0,0.0,74,0.00,,---,0.00,VWS V14.00,2013-02-21 10:42:00,
2013-02-21 02:47:00,43.7,36.3,29.41,ESE,115,0.0,0.0,75,0.00,,---,0.00,VWS V14.00,2013-02-21 10:47:00,
2013-02-21 02:52:00,43.5,36.1,29.41,ESE,115,0.0,0.0,75,0.00,,---,0.00,VWS V14.00,2013-02-21 10:52:00,
2013-02-21 02:57:00,43.3,36.3,29.41,SSE,149,0.0,0.0,76,0.00,,---,0.00,VWS V14.00,2013-02-21 10:57:00,
2013-02-21 03:02:00,43.2,35.8,29.41,SSW,206,0.0,0.0,75,0.00,,---,0.00,VWS V14.00,2013-02-21 11:02:00,
2013-02-21 03:07:00,43.0,35.6,29.41,SSW,206,0.0,0.0,75,0.00,,---,0.00,VWS V14.00,2013-02-21 11:07:00,
2013-02-21 03:12:00,43.2,36.1,29.41,SSW,195,0.0,0.0,76,0.00,,---,0.00,VWS V14.00,2013-02-21 11:12:00,
2013-02-21 03:17:00,43.3,36.3,29.41,SSW,196,0.0,0.0,76,0.00,,---,0.00,VWS V14.00,2013-02-21 11:17:00,
2013-02-21 03:22:00,43.5,36.5,29.41,SSW,196,0.0,0.0,76,0.00,,---,0.00,VWS V14.00,2013-02-21 11:22:00,
2013-02-21 03:27:00,43.3,36.3,29.41,SE,145,0.0,0.0,76,0.00,,---,0.00,VWS V14.00,2013-02-21 11:27:00,
2013-02-21 03:32:00,43.2,36.1,29.41,ESE,110,0.0,0.0,76,0.00,,---,0.00,VWS V14.00,2013-02-21 11:32:00,
2013-02-21 03:37:00,42.8,36.1,29.41,ESE,107,0.0,0.0,77,0.00,,---,0.00,VWS V14.00,2013-02-21 11:37:00,
2013-02-21 03:42:00,42.6,36.2,29.41,SSE,160,0.0,0.0,78,0.00,,---,0.00,VWS V14.00,2013-02-21 11:42:00,
2013-02-21 03:47:00,42.6,36.2,29.41,SSE,158,0.0,0.0,78,0.00,,---,0.00,VWS V14.00,2013-02-21 11:47:00,
2013-02-21 03:52:00,42.8,36.4,29.41,SSE,158,0.0,0.0,78,0.00,,---,0.00,VWS V14.00,2013-02-21 11:52:00,
2013-02-21 03:57:00,43.0,36.6,29.41,SSE,156,0.0,0.0,78,0.00,,---,0.00,VWS V14.00,2013-02-21 11:57:00,
2013-02-21 04:02:00,43.2,36.8,29.41,SSE,156,0.0,0.0,78,0.00,,---,0.00,VWS V14.00,2013-02-21 12:02:00,
2013-02-21 04:07:00,43.3,37.0,29.41,ESE,118,0.0,0.0,78,0.00,,---,0.00,VWS V14.00,2013-02-21 12:07:00,
2013-02-21 04:12:00,43.3,37.0,29.41,South,170,0.0,0.0,78,0.00,,---,0.00,VWS V14.00,2013-02-21 12:12:00,
2013-02-21 04:17:00,43.3,37.0,29.41,East,90,0.0,0.0,78,0.00,,---,0.00,VWS V14.00,2013-02-21 12:17:00,
2013-02-21 04:22:00,43.3,37.0,29.41,SSE,167,0.0,0.0,78,0.00,,---,0.00,VWS V14.00,2013-02-21 12:22:00,
2013-02-21 04:27:00,43.2,36.8,29.41,East,92,2.7,4.0,78,0.00,,---,0.00,VWS V14.00,2013-02-21 12:27:00,
2013-02-21 04:32:00,42.8,36.8,29.41,SSW,196,0.0,4.0,79,0.00,,---,0.00,VWS V14.00,2013-02-21 12:32:00,
2013-02-21 04:37:00,42.8,36.8,29.41,ESE,118,0.0,4.0,79,0.00,,---,0.00,VWS V14.00,2013-02-21 12:37:00,
2013-02-21 04:42:00,42.8,37.1,29.41,South,189,0.0,0.0,80,0.00,,---,0.00,VWS V14.00,2013-02-21 12:42:00,
2013-02-21 04:47:00,43.0,37.2,29.41,ENE,76,0.0,0.0,80,0.00,,---,0.00,VWS V14.00,2013-02-21 12:47:00,
2013-02-21 04:52:00,43.0,37.2,29.41,SSE,154,0.0,0.0,80,0.00,,---,0.00,VWS V14.00,2013-02-21 12:52:00,
2013-02-21 04:57:00,43.0,37.2,29.41,SSE,166,0.0,0.0,80,0.00,,---,0.00,VWS V14.00,2013-02-21 12:57:00,
2013-02-21 05:03:00,43.0,37.2,29.41,SSW,194,0.0,0.0,80,0.00,,---,0.00,VWS V14.00,2013-02-21 13:03:00,
2013-02-21 05:08:00,43.3,37.6,29.41,SSE,154,0.0,0.0,80,0.00,,---,0.00,VWS V14.00,2013-02-21 13:08:00,
2013-02-21 05:13:00,43.3,37.6,29.41,SSE,154,0.0,0.0,80,0.00,,---,0.00,VWS V14.00,2013-02-21 13:13:00,
2013-02-21 05:18:00,43.3,37.6,29.41,SSE,167,0.0,5.4,80,0.00,,---,0.00,VWS V14.00,2013-02-21 13:18:00,
2013-02-21 05:23:00,43.3,37.6,29.41,South,179,0.0,2.7,80,0.00,,---,0.00,VWS V14.00,2013-02-21 13:23:00,
2013-02-21 05:28:00,43.0,36.9,29.41,SSE,149,2.2,2.7,79,0.00,,---,0.00,VWS V14.00,2013-02-21 13:28:00,
2013-02-21 05:33:00,43.0,37.2,29.41,SSE,160,2.7,4.5,80,0.00,,---,0.00,VWS V14.00,2013-02-21 13:33:00,
2013-02-21 05:38:00,43.2,37.4,29.41,ESE,113,0.0,4.5,80,0.00,,---,0.00,VWS V14.00,2013-02-21 13:38:00,
2013-02-21 05:43:00,43.2,37.4,29.41,SSE,159,0.0,2.7,80,0.00,,---,0.00,VWS V14.00,2013-02-21 13:43:00,
2013-02-21 05:48:00,43.2,37.4,29.41,South,185,3.1,3.1,80,0.00,,---,0.00,VWS V14.00,2013-02-21 13:48:00,
2013-02-21 05:53:00,43.0,36.9,29.41,SSE,164,3.1,3.6,79,0.00,,---,0.00,VWS V14.00,2013-02-21 13:53:00,
2013-02-21 05:58:00,42.8,36.8,29.41,SSE,147,0.0,4.0,79,0.00,,---,0.00,VWS V14.00,2013-02-21 13:58:00,
2013-02-21 06:03:00,42.8,36.8,29.41,SE,145,6.3,6.3,79,0.00,,---,0.00,VWS V14.00,2013-02-21 14:03:00,
2013-02-21 06:08:00,42.8,36.4,29.41,South,181,0.0,6.3,78,0.00,,---,0.00,VWS V14.00,2013-02-21 14:08:00,
2013-02-21 06:13:00,43.0,36.6,29.41,SSW,209,3.6,6.3,78,0.00,,---,0.00,VWS V14.00,2013-02-21 14:13:00,
2013-02-21 06:18:00,42.8,36.4,29.41,South,173,0.0,6.3,78,0.00,,---,0.00,VWS V14.00,2013-02-21 14:18:00,
2013-02-21 06:23:00,43.2,36.8,29.41,SSE,164,0.0,3.1,78,0.00,,---,0.00,VWS V14.00,2013-02-21 14:23:00,
2013-02-21 06:28:00,43.3,36.6,29.41,WNW,301,0.0,4.0,77,0.00,,---,0.00,VWS V14.00,2013-02-21 14:28:00,
2013-02-21 06:33:00,43.3,36.6,29.41,SE,135,0.0,4.0,77,0.00,,---,0.00,VWS V14.00,2013-02-21 14:33:00,
2013-02-21 06:38:00,43.3,36.6,29.41,South,181,0.0,4.0,77,0.00,,---,0.00,VWS V14.00,2013-02-21 14:38:00,
2013-02-21 06:43:00,43.3,36.6,29.41,SSE,153,0.0,2.2,77,0.00,,---,0.00,VWS V14.00,2013-02-21 14:43:00,
2013-02-21 06:48:00,43.3,36.6,29.41,SSW,205,0.0,4.0,77,0.00,,---,0.00,VWS V14.00,2013-02-21 14:48:00,
2013-02-21 06:53:00,43.7,37.0,29.41,SE,133,0.0,4.0,77,0.00,,---,0.00,VWS V14.00,2013-02-21 14:53:00,
2013-02-21 06:58:00,43.7,37.0,29.41,SSE,157,0.0,4.9,77,0.00,,---,0.00,VWS V14.00,2013-02-21 14:58:00,
2013-02-21 07:03:00,43.7,37.0,29.41,South,190,0.0,4.0,77,0.00,,---,0.00,VWS V14.00,2013-02-21 15:03:00,
2013-02-21 07:08:00,43.7,36.6,29.41,South,186,0.0,5.4,76,0.00,,---,0.00,VWS V14.00,2013-02-21 15:08:00,
2013-02-21 07:13:00,43.3,36.3,29.41,SE,142,0.0,5.4,76,0.00,,---,0.00,VWS V14.00,2013-02-21 15:13:00,
2013-02-21 07:18:00,43.5,36.5,29.41,SSE,165,0.0,5.4,76,0.00,,---,0.00,VWS V14.00,2013-02-21 15:18:00,
2013-02-21 07:23:00,43.7,36.6,29.41,SE,133,0.0,4.9,76,0.00,,---,0.00,VWS V14.00,2013-02-21 15:23:00,
2013-02-21 07:28:00,43.7,36.6,29.41,SE,144,2.7,6.3,76,0.00,,---,0.00,VWS V14.00,2013-02-21 15:28:00,
2013-02-21 07:33:00,43.7,36.6,29.41,South,175,0.0,6.3,76,0.00,,---,0.00,VWS V14.00,2013-02-21 15:33:00,
2013-02-21 07:38:00,43.5,36.1,29.44,SE,139,2.2,6.3,75,0.00,,---,0.00,VWS V14.00,2013-02-21 15:38:00,
2013-02-21 07:43:00,43.7,36.6,29.44,East,82,0.0,0.0,76,0.00,,---,0.04,VWS V14.00,2013-02-21 15:43:00,
2013-02-21 07:48:00,43.9,36.8,29.44,SE,138,0.0,0.0,76,0.00,,---,0.04,VWS V14.00,2013-02-21 15:48:00,
2013-02-21 07:53:00,43.9,36.5,29.44,NE,48,0.0,3.6,75,0.00,,---,0.04,VWS V14.00,2013-02-21 15:53:00,
2013-02-21 07:58:00,44.1,36.7,29.44,SSW,196,4.9,5.4,75,0.00,,---,0.04,VWS V14.00,2013-02-21 15:58:00,
2013-02-21 08:03:00,43.9,36.5,29.44,South,173,2.7,2.7,75,0.00,,---,0.04,VWS V14.00,2013-02-21 16:03:00,
2013-02-21 08:08:00,44.1,36.7,29.44,SSE,159,0.0,2.7,75,0.00,,---,0.04,VWS V14.00,2013-02-21 16:08:00,
2013-02-21 08:13:00,43.7,36.3,29.44,South,183,0.0,3.1,75,0.00,,---,0.04,VWS V14.00,2013-02-21 16:13:00,
2013-02-21 08:18:00,43.5,36.1,29.44,SSE,168,0.0,7.6,75,0.00,,---,0.04,VWS V14.00,2013-02-21 16:18:00,
2013-02-21 08:23:00,43.5,36.1,29.44,ESE,110,0.0,5.8,75,0.00,,---,0.04,VWS V14.00,2013-02-21 16:23:00,
2013-02-21 08:28:00,43.5,35.8,29.44,SSE,151,0.0,5.8,74,0.00,,---,0.04,VWS V14.00,2013-02-21 16:28:00,
2013-02-21 08:33:00,43.9,36.5,29.44,ESE,117,0.0,5.8,75,0.00,,---,0.04,VWS V14.00,2013-02-21 16:33:00,
2013-02-21 08:38:00,43.9,36.1,29.44,SSE,168,0.0,5.8,74,0.00,,---,0.04,VWS V14.00,2013-02-21 16:38:00,
2013-02-21 08:43:00,44.1,36.3,29.44,SSE,167,3.6,5.4,74,0.00,,---,0.04,VWS V14.00,2013-02-21 16:43:00,
2013-02-21 08:49:00,44.1,36.3,29.44,SW,222,0.0,7.6,74,0.00,,---,0.04,VWS V14.00,2013-02-21 16:49:00,
2013-02-21 08:54:00,43.9,35.8,29.44,South,190,0.0,7.6,73,0.00,,---,0.04,VWS V14.00,2013-02-21 16:54:00,
2013-02-21 08:59:00,44.1,36.0,29.44,East,91,2.7,7.6,73,0.00,,---,0.04,VWS V14.00,2013-02-21 16:59:00,
2013-02-21 09:04:00,44.1,36.0,29.44,SW,222,0.0,5.4,73,0.00,,---,0.04,VWS V14.00,2013-02-21 17:04:00,
2013-02-21 09:09:00,44.1,36.0,29.44,South,175,0.0,5.4,73,0.00,,---,0.04,VWS V14.00,2013-02-21 17:09:00,
2013-02-21 09:14:00,43.7,35.3,29.44,SE,146,0.0,5.4,72,0.00,,---,0.04,VWS V14.00,2013-02-21 17:14:00,
2013-02-21 09:19:00,43.7,35.3,29.44,SSE,153,3.1,6.3,72,0.00,,---,0.04,VWS V14.00,2013-02-21 17:19:00,
2013-02-21 09:24:00,43.7,35.3,29.44,South,186,0.0,2.7,72,0.00,,---,0.04,VWS V14.00,2013-02-21 17:24:00,
2013-02-21 09:29:00,43.9,35.1,29.44,NE,50,3.1,5.4,71,0.00,,---,0.04,VWS V14.00,2013-02-21 17:29:00,
2013-02-21 09:34:00,43.9,35.1,29.44,SSE,161,0.0,5.4,71,0.00,,---,0.04,VWS V14.00,2013-02-21 17:34:00,
2013-02-21 09:39:00,43.9,35.1,29.41,SE,125,0.0,5.4,71,0.00,,---,0.04,VWS V14.00,2013-02-21 17:39:00,
2013-02-21 09:44:00,44.1,35.3,29.41,SW,216,0.0,6.7,71,0.00,,---,0.04,VWS V14.00,2013-02-21 17:44:00,
2013-02-21 09:49:00,44.1,35.3,29.41,East,88,0.0,6.7,71,0.00,,---,0.04,VWS V14.00,2013-02-21 17:49:00,
2013-02-21 09:54:00,44.2,35.5,29.44,East,92,0.0,6.7,71,0.00,,---,0.04,VWS V14.00,2013-02-21 17:54:00,
2013-02-21 09:59:00,43.9,35.1,29.44,NNE,16,0.0,6.7,71,0.00,,---,0.04,VWS V14.00,2013-02-21 17:59:00,
2013-02-21 10:04:00,44.1,35.3,29.44,WNW,282,0.0,7.6,71,0.00,,---,0.04,VWS V14.00,2013-02-21 18:04:00,
2013-02-21 10:09:00,43.7,34.6,29.44,South,189,2.7,7.6,70,0.00,,---,0.04,VWS V14.00,2013-02-21 18:09:00,
2013-02-21 10:14:00,43.7,34.9,29.44,West,263,2.7,7.6,71,0.00,,---,0.04,VWS V14.00,2013-02-21 18:14:00,
2013-02-21 10:19:00,43.7,34.9,29.44,SE,142,0.0,7.6,71,0.00,,---,0.04,VWS V14.00,2013-02-21 18:19:00,
2013-02-21 10:24:00,43.9,35.1,29.44,South,171,0.0,3.6,71,0.00,,---,0.04,VWS V14.00,2013-02-21 18:24:00,